sensor_id;sensor_type;location;lat;lon;timestamp;pressure;altitude;pressure_sealevel;temperature;humidity
63399;BME280;49533;-34.520;150.798;2024-03-08T00:00:15;101481.50;;;24.48;60.80
63399;BME280;49533;-34.520;150.798;2024-03-08T00:02:45;101507.56;;;24.73;60.78
63399;BME280;49533;-34.520;150.798;2024-03-08T00:05:13;101504.88;;;24.81;61.50
63399;BME280;49533;-34.520;150.798;2024-03-08T00:07:41;101491.69;;;24.74;61.60
63399;BME280;49533;-34.520;150.798;2024-03-08T00:10:11;101544.88;;;25.10;61.92
63399;BME280;49533;-34.520;150.798;2024-03-08T00:12:39;101471.81;;;24.72;61.50
63399;BME280;49533;-34.520;150.798;2024-03-08T00:15:12;101486.63;;;24.83;61.13
63399;BME280;49533;-34.520;150.798;2024-03-08T00:17:41;101425.03;;;24.40;61.49
63399;BME280;49533;-34.520;150.798;2024-03-08T00:20:08;101491.59;;;25.01;61.04
63399;BME280;49533;-34.520;150.798;2024-03-08T00:22:36;101486.75;;;24.94;61.51
63399;BME280;49533;-34.520;150.798;2024-03-08T00:25:04;101426.13;;;24.66;61.21
63399;BME280;49533;-34.520;150.798;2024-03-08T00:27:32;101495.28;;;25.15;60.93
63399;BME280;49533;-34.520;150.798;2024-03-08T00:30:00;101484.91;;;25.09;61.29
63399;BME280;49533;-34.520;150.798;2024-03-08T00:32:27;101445.47;;;24.96;61.23
63399;BME280;49533;-34.520;150.798;2024-03-08T00:34:54;101541.75;;;25.56;60.91
63399;BME280;49533;-34.520;150.798;2024-03-08T00:37:22;101536.97;;;25.56;60.58
63399;BME280;49533;-34.520;150.798;2024-03-08T00:39:50;101460.25;;;25.07;61.12
63399;BME280;49533;-34.520;150.798;2024-03-08T00:42:18;101536.63;;;25.62;61.03
63399;BME280;49533;-34.520;150.798;2024-03-08T00:44:46;101469.13;;;25.20;60.85
63399;BME280;49533;-34.520;150.798;2024-03-08T00:47:14;101533.88;;;25.69;61.16
63399;BME280;49533;-34.520;150.798;2024-03-08T00:49:42;101434.78;;;25.02;60.71
63399;BME280;49533;-34.520;150.798;2024-03-08T00:52:09;101471.59;;;25.29;61.23
63399;BME280;49533;-34.520;150.798;2024-03-08T00:54:37;101458.09;;;25.31;61.69
63399;BME280;49533;-34.520;150.798;2024-03-08T00:57:04;101505.25;;;25.65;61.22
63399;BME280;49533;-34.520;150.798;2024-03-08T00:59:32;101478.97;;;25.58;61.17
63399;BME280;49533;-34.520;150.798;2024-03-08T01:02:00;101475.03;;;25.67;60.77
63399;BME280;49533;-34.520;150.798;2024-03-08T01:04:28;101511.44;;;25.95;60.93
63399;BME280;49533;-34.520;150.798;2024-03-08T01:06:56;101503.47;;;25.94;61.06
63399;BME280;49533;-34.520;150.798;2024-03-08T01:09:24;101489.56;;;25.97;60.73
63399;BME280;49533;-34.520;150.798;2024-03-08T01:11:53;101416.94;;;25.54;60.39
63399;BME280;49533;-34.520;150.798;2024-03-08T01:14:21;101503.16;;;26.10;60.67
63399;BME280;49533;-34.520;150.798;2024-03-08T01:16:55;101468.13;;;26.01;60.50
63399;BME280;49533;-34.520;150.798;2024-03-08T01:19:22;101487.28;;;26.17;60.27
63399;BME280;49533;-34.520;150.798;2024-03-08T01:21:50;101431.03;;;25.87;60.34
63399;BME280;49533;-34.520;150.798;2024-03-08T01:24:17;101473.78;;;26.23;60.34
63399;BME280;49533;-34.520;150.798;2024-03-08T01:26:44;101472.22;;;26.26;60.64
63399;BME280;49533;-34.520;150.798;2024-03-08T01:29:11;101410.81;;;25.93;60.19
63399;BME280;49533;-34.520;150.798;2024-03-08T01:31:42;101414.78;;;25.96;60.75
63399;BME280;49533;-34.520;150.798;2024-03-08T01:34:09;101402.03;;;25.91;60.52
63399;BME280;49533;-34.520;150.798;2024-03-08T01:36:37;101415.66;;;26.11;60.74
63399;BME280;49533;-34.520;150.798;2024-03-08T01:39:04;101414.44;;;26.12;60.35
63399;BME280;49533;-34.520;150.798;2024-03-08T01:41:34;101469.09;;;26.45;60.57
63399;BME280;49533;-34.520;150.798;2024-03-08T01:44:02;101379.75;;;25.95;60.39
63399;BME280;49533;-34.520;150.798;2024-03-08T01:46:30;101459.53;;;26.50;60.06
63399;BME280;49533;-34.520;150.798;2024-03-08T01:48:57;101460.41;;;26.54;60.43
63399;BME280;49533;-34.520;150.798;2024-03-08T01:51:28;101368.66;;;25.98;60.28
63399;BME280;49533;-34.520;150.798;2024-03-08T01:53:56;101454.03;;;26.60;59.65
63399;BME280;49533;-34.520;150.798;2024-03-08T01:56:26;101360.72;;;26.04;60.23
63399;BME280;49533;-34.520;150.798;2024-03-08T01:58:54;101436.53;;;26.74;60.52
63399;BME280;49533;-34.520;150.798;2024-03-08T02:01:21;101389.13;;;26.60;60.44
63399;BME280;49533;-34.520;150.798;2024-03-08T02:03:49;101425.81;;;26.87;60.12
63399;BME280;49533;-34.520;150.798;2024-03-08T02:06:17;101426.97;;;26.97;60.23
63399;BME280;49533;-34.520;150.798;2024-03-08T02:08:44;101376.81;;;26.75;59.57
63399;BME280;49533;-34.520;150.798;2024-03-08T02:11:12;101382.78;;;26.84;59.78
63399;BME280;49533;-34.520;150.798;2024-03-08T02:13:39;101435.41;;;27.25;59.30
63399;BME280;49533;-34.520;150.798;2024-03-08T02:16:07;101405.88;;;27.10;58.88
63399;BME280;49533;-34.520;150.798;2024-03-08T02:18:34;101377.59;;;26.90;58.32
63399;BME280;49533;-34.520;150.798;2024-03-08T02:21:04;101409.84;;;27.09;58.46
63399;BME280;49533;-34.520;150.798;2024-03-08T02:23:32;101411.06;;;27.08;58.23
63399;BME280;49533;-34.520;150.798;2024-03-08T02:26:00;101350.91;;;26.78;57.92
63399;BME280;49533;-34.520;150.798;2024-03-08T02:28:27;101416.63;;;27.29;57.97
63399;BME280;49533;-34.520;150.798;2024-03-08T02:30:55;101402.31;;;27.20;58.48
63399;BME280;49533;-34.520;150.798;2024-03-08T02:33:23;101417.03;;;27.35;58.50
63399;BME280;49533;-34.520;150.798;2024-03-08T02:35:54;101405.47;;;27.40;58.21
63399;BME280;49533;-34.520;150.798;2024-03-08T02:38:23;101331.41;;;26.93;58.13
63399;BME280;49533;-34.520;150.798;2024-03-08T02:40:51;101375.97;;;27.25;58.14
63399;BME280;49533;-34.520;150.798;2024-03-08T02:43:20;101398.28;;;27.46;57.68
63399;BME280;49533;-34.520;150.798;2024-03-08T02:45:51;101395.91;;;27.41;57.68
63399;BME280;49533;-34.520;150.798;2024-03-08T02:48:21;101413.44;;;27.49;57.01
63399;BME280;49533;-34.520;150.798;2024-03-08T02:50:48;101396.66;;;27.52;57.44
63399;BME280;49533;-34.520;150.798;2024-03-08T02:53:17;101394.25;;;27.58;57.47
63399;BME280;49533;-34.520;150.798;2024-03-08T02:55:45;101396.66;;;27.60;57.61
63399;BME280;49533;-34.520;150.798;2024-03-08T02:58:13;101401.84;;;27.61;57.77
63399;BME280;49533;-34.520;150.798;2024-03-08T03:00:40;101344.13;;;27.26;57.29
63399;BME280;49533;-34.520;150.798;2024-03-08T03:03:08;101330.56;;;27.24;57.62
63399;BME280;49533;-34.520;150.798;2024-03-08T03:05:35;101383.03;;;27.72;57.40
63399;BME280;49533;-34.520;150.798;2024-03-08T03:08:02;101274.78;;;26.99;57.38
63399;BME280;49533;-34.520;150.798;2024-03-08T03:10:35;101274.41;;;27.01;57.42
63399;BME280;49533;-34.520;150.798;2024-03-08T03:13:02;101360.41;;;27.49;57.45
63399;BME280;49533;-34.520;150.798;2024-03-08T03:15:31;101387.06;;;27.71;57.75
63399;BME280;49533;-34.520;150.798;2024-03-08T03:17:58;101373.88;;;27.72;57.70
63399;BME280;49533;-34.520;150.798;2024-03-08T03:20:25;101334.88;;;27.47;57.87
63399;BME280;49533;-34.520;150.798;2024-03-08T03:22:59;101376.25;;;27.73;57.80
63399;BME280;49533;-34.520;150.798;2024-03-08T03:25:29;101295.09;;;27.25;57.91
63399;BME280;49533;-34.520;150.798;2024-03-08T03:28:01;101367.88;;;27.77;57.96
63399;BME280;49533;-34.520;150.798;2024-03-08T03:30:29;101359.50;;;27.77;57.79
63399;BME280;49533;-34.520;150.798;2024-03-08T03:33:03;101346.41;;;27.60;57.89
63399;BME280;49533;-34.520;150.798;2024-03-08T03:35:33;101336.00;;;27.67;57.91
63399;BME280;49533;-34.520;150.798;2024-03-08T03:38:00;101336.03;;;27.60;57.92
63399;BME280;49533;-34.520;150.798;2024-03-08T03:40:34;101359.47;;;27.81;58.03
63399;BME280;49533;-34.520;150.798;2024-03-08T03:43:01;101253.25;;;27.14;58.15
63399;BME280;49533;-34.520;150.798;2024-03-08T03:45:32;101331.25;;;27.64;58.00
63399;BME280;49533;-34.520;150.798;2024-03-08T03:48:06;101297.81;;;27.46;58.25
63399;BME280;49533;-34.520;150.798;2024-03-08T03:50:35;101310.94;;;27.57;58.15
63399;BME280;49533;-34.520;150.798;2024-03-08T03:53:03;101333.19;;;27.74;58.18
63399;BME280;49533;-34.520;150.798;2024-03-08T03:55:30;101353.09;;;27.87;58.24
63399;BME280;49533;-34.520;150.798;2024-03-08T03:57:57;101347.91;;;27.89;58.21
63399;BME280;49533;-34.520;150.798;2024-03-08T04:00:27;101345.53;;;27.88;58.00
63399;BME280;49533;-34.520;150.798;2024-03-08T04:02:54;101329.56;;;27.78;58.23
63399;BME280;49533;-34.520;150.798;2024-03-08T04:05:25;101337.97;;;27.78;58.44
63399;BME280;49533;-34.520;150.798;2024-03-08T04:07:52;101307.69;;;27.65;58.32
63399;BME280;49533;-34.520;150.798;2024-03-08T04:10:19;101244.06;;;27.31;58.44
63399;BME280;49533;-34.520;150.798;2024-03-08T04:12:46;101341.91;;;27.94;58.26
63399;BME280;49533;-34.520;150.798;2024-03-08T04:15:14;101318.84;;;27.72;58.19
63399;BME280;49533;-34.520;150.798;2024-03-08T04:17:41;101189.59;;;26.95;58.07
63399;BME280;49533;-34.520;150.798;2024-03-08T04:20:08;101282.59;;;27.58;58.16
63399;BME280;49533;-34.520;150.798;2024-03-08T04:22:40;101288.94;;;27.66;57.98
63399;BME280;49533;-34.520;150.798;2024-03-08T04:25:08;101336.69;;;28.00;58.16
63399;BME280;49533;-34.520;150.798;2024-03-08T04:27:36;101275.44;;;27.57;58.18
63399;BME280;49533;-34.520;150.798;2024-03-08T04:30:04;101330.28;;;28.03;58.22
63399;BME280;49533;-34.520;150.798;2024-03-08T04:32:34;101260.69;;;27.53;58.10
63399;BME280;49533;-34.520;150.798;2024-03-08T04:35:01;101314.75;;;27.91;58.25
63399;BME280;49533;-34.520;150.798;2024-03-08T04:37:29;101327.09;;;28.05;58.43
63399;BME280;49533;-34.520;150.798;2024-03-08T04:39:57;101331.06;;;28.07;58.67
63399;BME280;49533;-34.520;150.798;2024-03-08T04:42:24;101281.28;;;27.81;58.42
63399;BME280;49533;-34.520;150.798;2024-03-08T04:44:52;101325.84;;;28.09;58.50
63399;BME280;49533;-34.520;150.798;2024-03-08T04:47:22;101268.59;;;27.72;58.57
63399;BME280;49533;-34.520;150.798;2024-03-08T04:49:49;101331.44;;;28.09;58.47
63399;BME280;49533;-34.520;150.798;2024-03-08T04:52:16;101330.25;;;28.10;58.72
63399;BME280;49533;-34.520;150.798;2024-03-08T04:54:44;101268.59;;;27.72;58.28
63399;BME280;49533;-34.520;150.798;2024-03-08T04:57:11;101296.75;;;28.03;58.65
63399;BME280;49533;-34.520;150.798;2024-03-08T04:59:38;101280.09;;;27.85;58.40
63399;BME280;49533;-34.520;150.798;2024-03-08T05:02:06;101313.84;;;28.16;58.63
63399;BME280;49533;-34.520;150.798;2024-03-08T05:04:33;101284.03;;;27.91;58.16
63399;BME280;49533;-34.520;150.798;2024-03-08T05:07:01;101223.97;;;27.58;58.38
63399;BME280;49533;-34.520;150.798;2024-03-08T05:09:28;101290.81;;;27.98;58.26
63399;BME280;49533;-34.520;150.798;2024-03-08T05:11:57;101316.59;;;28.19;58.51
63399;BME280;49533;-34.520;150.798;2024-03-08T05:14:26;101287.22;;;27.97;58.35
63399;BME280;49533;-34.520;150.798;2024-03-08T05:16:53;101312.56;;;28.24;58.33
63399;BME280;49533;-34.520;150.798;2024-03-08T05:19:20;101306.66;;;28.15;58.32
63399;BME280;49533;-34.520;150.798;2024-03-08T05:21:49;101185.41;;;27.42;58.13
63399;BME280;49533;-34.520;150.798;2024-03-08T05:24:17;101313.75;;;28.27;58.14
63399;BME280;49533;-34.520;150.798;2024-03-08T05:26:45;101310.97;;;28.27;58.21
63399;BME280;49533;-34.520;150.798;2024-03-08T05:29:12;101286.72;;;28.09;58.36
63399;BME280;49533;-34.520;150.798;2024-03-08T05:31:48;101296.66;;;28.17;57.91
63399;BME280;49533;-34.520;150.798;2024-03-08T05:34:16;101310.94;;;28.30;58.26
63399;BME280;49533;-34.520;150.798;2024-03-08T05:36:43;101309.34;;;28.29;58.40
63399;BME280;49533;-34.520;150.798;2024-03-08T05:39:20;101308.94;;;28.31;58.11
63399;BME280;49533;-34.520;150.798;2024-03-08T05:41:47;101239.00;;;27.86;58.12
63399;BME280;49533;-34.520;150.798;2024-03-08T05:44:15;101306.94;;;28.31;58.20
63399;BME280;49533;-34.520;150.798;2024-03-08T05:46:45;101300.94;;;28.33;58.16
63399;BME280;49533;-34.520;150.798;2024-03-08T05:49:15;101255.28;;;27.98;58.30
63399;BME280;49533;-34.520;150.798;2024-03-08T05:51:42;101254.03;;;28.06;58.09
63399;BME280;49533;-34.520;150.798;2024-03-08T05:54:11;101250.84;;;28.04;58.34
63399;BME280;49533;-34.520;150.798;2024-03-08T05:56:39;101301.31;;;28.35;57.89
63399;BME280;49533;-34.520;150.798;2024-03-08T05:59:11;101292.63;;;28.26;58.17
63399;BME280;49533;-34.520;150.798;2024-03-08T06:01:38;101306.91;;;28.35;57.90
63399;BME280;49533;-34.520;150.798;2024-03-08T06:04:07;101302.13;;;28.35;58.05
63399;BME280;49533;-34.520;150.798;2024-03-08T06:06:34;101296.94;;;28.34;57.99
63399;BME280;49533;-34.520;150.798;2024-03-08T06:09:03;101285.47;;;28.21;57.79
63399;BME280;49533;-34.520;150.798;2024-03-08T06:11:37;101260.84;;;28.05;57.84
63399;BME280;49533;-34.520;150.798;2024-03-08T06:14:04;101194.34;;;27.79;57.41
63399;BME280;49533;-34.520;150.798;2024-03-08T06:16:32;101168.13;;;27.65;57.29
63399;BME280;49533;-34.520;150.798;2024-03-08T06:19:00;101294.81;;;28.56;57.25
63399;BME280;49533;-34.520;150.798;2024-03-08T06:21:28;101272.06;;;28.54;57.32
63399;BME280;49533;-34.520;150.798;2024-03-08T06:23:56;101282.31;;;28.68;56.92
63399;BME280;49533;-34.520;150.798;2024-03-08T06:26:24;101287.88;;;28.71;56.89
63399;BME280;49533;-34.520;150.798;2024-03-08T06:28:51;101209.59;;;28.26;56.88
63399;BME280;49533;-34.520;150.798;2024-03-08T06:31:18;101286.63;;;28.76;56.99
63399;BME280;49533;-34.520;150.798;2024-03-08T06:33:47;101201.25;;;28.19;56.64
63399;BME280;49533;-34.520;150.798;2024-03-08T06:36:19;101288.22;;;28.77;56.45
63399;BME280;49533;-34.520;150.798;2024-03-08T06:38:51;101208.84;;;28.18;55.99
63399;BME280;49533;-34.520;150.798;2024-03-08T06:41:19;101290.75;;;28.60;54.74
63399;BME280;49533;-34.520;150.798;2024-03-08T06:43:47;101293.22;;;28.55;55.08
63399;BME280;49533;-34.520;150.798;2024-03-08T06:46:18;101302.81;;;28.50;54.38
63399;BME280;49533;-34.520;150.798;2024-03-08T06:48:47;101179.69;;;27.67;54.77
63399;BME280;49533;-34.520;150.798;2024-03-08T06:51:15;101255.22;;;28.12;54.78
63399;BME280;49533;-34.520;150.798;2024-03-08T06:53:43;101300.88;;;28.40;54.54
63399;BME280;49533;-34.520;150.798;2024-03-08T06:56:11;101298.91;;;28.37;54.19
63399;BME280;49533;-34.520;150.798;2024-03-08T06:58:38;101303.75;;;28.33;54.60
63399;BME280;49533;-34.520;150.798;2024-03-08T07:01:06;101255.63;;;28.07;54.86
63399;BME280;49533;-34.520;150.798;2024-03-08T07:03:42;101301.31;;;28.35;54.63
63399;BME280;49533;-34.520;150.798;2024-03-08T07:06:12;101203.53;;;27.75;54.75
63399;BME280;49533;-34.520;150.798;2024-03-08T07:08:42;101241.38;;;27.94;54.94
63399;BME280;49533;-34.520;150.798;2024-03-08T07:11:12;101254.50;;;27.94;55.06
63399;BME280;49533;-34.520;150.798;2024-03-08T07:13:42;101296.25;;;28.23;55.27
63399;BME280;49533;-34.520;150.798;2024-03-08T07:16:09;101250.97;;;27.90;55.54
63399;BME280;49533;-34.520;150.798;2024-03-08T07:18:39;101276.00;;;28.04;55.31
63399;BME280;49533;-34.520;150.798;2024-03-08T07:21:10;101264.84;;;28.01;55.42
63399;BME280;49533;-34.520;150.798;2024-03-08T07:23:37;101191.69;;;27.57;55.35
63399;BME280;49533;-34.520;150.798;2024-03-08T07:26:45;101161.22;;;27.18;56.15
63399;BME280;49533;-34.520;150.798;2024-03-08T07:29:16;101281.56;;;28.08;55.95
63399;BME280;49533;-34.520;150.798;2024-03-08T07:31:52;101297.84;;;28.16;55.82
63399;BME280;49533;-34.520;150.798;2024-03-08T07:34:34;101236.72;;;27.66;55.64
63399;BME280;49533;-34.520;150.798;2024-03-08T07:37:01;101263.31;;;27.89;55.67
63399;BME280;49533;-34.520;150.798;2024-03-08T07:39:29;101288.44;;;27.92;55.53
63399;BME280;49533;-34.520;150.798;2024-03-08T07:41:58;101297.53;;;28.07;55.91
63399;BME280;49533;-34.520;150.798;2024-03-08T07:44:25;101302.34;;;28.03;55.83
63399;BME280;49533;-34.520;150.798;2024-03-08T07:46:53;101252.84;;;27.26;56.04
63399;BME280;49533;-34.520;150.798;2024-03-08T07:49:20;101279.69;;;27.90;55.46
63399;BME280;49533;-34.520;150.798;2024-03-08T07:51:48;101299.19;;;27.94;55.63
63399;BME280;49533;-34.520;150.798;2024-03-08T07:54:15;101286.47;;;27.79;55.74
63399;BME280;49533;-34.520;150.798;2024-03-08T07:56:42;101293.69;;;27.87;55.28
63399;BME280;49533;-34.520;150.798;2024-03-08T07:59:09;101243.59;;;27.47;55.43
63399;BME280;49533;-34.520;150.798;2024-03-08T08:01:38;101301.25;;;27.83;55.40
63399;BME280;49533;-34.520;150.798;2024-03-08T08:04:05;101240.44;;;27.38;54.89
63399;BME280;49533;-34.520;150.798;2024-03-08T08:06:32;101237.66;;;27.35;54.83
63399;BME280;49533;-34.520;150.798;2024-03-08T08:08:59;101280.19;;;27.60;55.49
63399;BME280;49533;-34.520;150.798;2024-03-08T08:11:28;101266.75;;;27.41;55.21
63399;BME280;49533;-34.520;150.798;2024-03-08T08:13:58;101318.44;;;27.70;55.24
63399;BME280;49533;-34.520;150.798;2024-03-08T08:16:25;101304.91;;;27.69;55.10
63399;BME280;49533;-34.520;150.798;2024-03-08T08:18:52;101304.16;;;27.54;55.34
63399;BME280;49533;-34.520;150.798;2024-03-08T08:21:20;101308.94;;;27.57;55.51
63399;BME280;49533;-34.520;150.798;2024-03-08T08:23:48;101318.53;;;27.56;55.50
63399;BME280;49533;-34.520;150.798;2024-03-08T08:26:15;101317.69;;;27.59;55.46
63399;BME280;49533;-34.520;150.798;2024-03-08T08:28:43;101267.59;;;27.16;55.70
63399;BME280;49533;-34.520;150.798;2024-03-08T08:31:12;101270.78;;;27.11;55.80
63399;BME280;49533;-34.520;150.798;2024-03-08T08:33:39;101255.28;;;26.99;55.75
63399;BME280;49533;-34.520;150.798;2024-03-08T08:36:06;101300.66;;;27.25;55.87
63399;BME280;49533;-34.520;150.798;2024-03-08T08:38:34;101339.66;;;27.43;56.03
63399;BME280;49533;-34.520;150.798;2024-03-08T08:41:01;101247.75;;;26.85;55.87
63399;BME280;49533;-34.520;150.798;2024-03-08T08:43:28;101342.88;;;27.38;55.91
63399;BME280;49533;-34.520;150.798;2024-03-08T08:45:55;101344.06;;;27.40;56.06
63399;BME280;49533;-34.520;150.798;2024-03-08T08:48:23;101307.44;;;27.17;55.93
63399;BME280;49533;-34.520;150.798;2024-03-08T08:50:51;101318.19;;;27.29;56.18
63399;BME280;49533;-34.520;150.798;2024-03-08T08:53:18;101257.28;;;26.92;55.49
63399;BME280;49533;-34.520;150.798;2024-03-08T08:55:45;101279.94;;;27.11;55.51
63399;BME280;49533;-34.520;150.798;2024-03-08T08:58:12;101271.59;;;27.08;55.76
63399;BME280;49533;-34.520;150.798;2024-03-08T09:00:40;101291.91;;;27.19;55.54
63399;BME280;49533;-34.520;150.798;2024-03-08T09:03:08;101252.13;;;26.90;55.43
63399;BME280;49533;-34.520;150.798;2024-03-08T09:05:35;101321.75;;;27.44;55.68
63399;BME280;49533;-34.520;150.798;2024-03-08T09:08:02;101363.09;;;27.70;55.62
63399;BME280;49533;-34.520;150.798;2024-03-08T09:10:29;101376.28;;;27.70;55.73
63399;BME280;49533;-34.520;150.798;2024-03-08T09:12:56;101306.63;;;27.34;55.53
63399;BME280;49533;-34.520;150.798;2024-03-08T09:15:25;101377.47;;;27.72;55.26
63399;BME280;49533;-34.520;150.798;2024-03-08T09:17:54;101381.84;;;27.73;55.55
63399;BME280;49533;-34.520;150.798;2024-03-08T09:20:21;101344.47;;;27.46;55.64
63399;BME280;49533;-34.520;150.798;2024-03-08T09:22:48;101362.78;;;27.54;55.26
63399;BME280;49533;-34.520;150.798;2024-03-08T09:25:16;101345.72;;;27.30;55.81
63399;BME280;49533;-34.520;150.798;2024-03-08T09:27:43;101404.56;;;27.75;55.51
63399;BME280;49533;-34.520;150.798;2024-03-08T09:30:10;101398.97;;;27.75;55.62
63399;BME280;49533;-34.520;150.798;2024-03-08T09:32:39;101331.34;;;27.28;55.30
63399;BME280;49533;-34.520;150.798;2024-03-08T09:35:06;101406.97;;;27.77;55.46
63399;BME280;49533;-34.520;150.798;2024-03-08T09:37:34;101340.09;;;27.41;54.95
63399;BME280;49533;-34.520;150.798;2024-03-08T09:40:01;101324.94;;;27.35;55.18
63399;BME280;49533;-34.520;150.798;2024-03-08T09:42:31;101357.59;;;27.49;55.09
63399;BME280;49533;-34.520;150.798;2024-03-08T09:44:58;101400.59;;;27.77;55.12
63399;BME280;49533;-34.520;150.798;2024-03-08T09:47:28;101380.69;;;27.60;55.11
63399;BME280;49533;-34.520;150.798;2024-03-08T09:50:00;101315.81;;;27.17;54.99
63399;BME280;49533;-34.520;150.798;2024-03-08T09:52:27;101400.19;;;27.74;54.93
63399;BME280;49533;-34.520;150.798;2024-03-08T09:54:57;101400.19;;;27.74;55.21
63399;BME280;49533;-34.520;150.798;2024-03-08T09:57:25;101334.56;;;27.23;55.09
63399;BME280;49533;-34.520;150.798;2024-03-08T09:59:52;101366.38;;;27.51;54.64
63399;BME280;49533;-34.520;150.798;2024-03-08T10:02:19;101347.31;;;27.28;55.19
63399;BME280;49533;-34.520;150.798;2024-03-08T10:04:47;101408.56;;;27.71;55.12
63399;BME280;49533;-34.520;150.798;2024-03-08T10:07:14;101407.03;;;27.59;54.82
63399;BME280;49533;-34.520;150.798;2024-03-08T10:09:41;101420.97;;;27.63;54.61
63399;BME280;49533;-34.520;150.798;2024-03-08T10:12:15;101434.13;;;27.69;54.84
63399;BME280;49533;-34.520;150.798;2024-03-08T10:14:42;101430.94;;;27.60;54.85
63399;BME280;49533;-34.520;150.798;2024-03-08T10:17:10;101440.09;;;27.64;54.95
63399;BME280;49533;-34.520;150.798;2024-03-08T10:19:37;101441.28;;;27.63;54.54
63399;BME280;49533;-34.520;150.798;2024-03-08T10:22:05;101433.38;;;27.51;54.38
63399;BME280;49533;-34.520;150.798;2024-03-08T10:24:34;101413.44;;;27.35;54.48
63399;BME280;49533;-34.520;150.798;2024-03-08T10:27:01;101443.72;;;27.61;54.91
63399;BME280;49533;-34.520;150.798;2024-03-08T10:29:33;101418.63;;;27.40;54.94
63399;BME280;49533;-34.520;150.798;2024-03-08T10:32:02;101401.09;;;27.28;54.73
63399;BME280;49533;-34.520;150.798;2024-03-08T10:34:29;101436.53;;;27.60;54.62
63399;BME280;49533;-34.520;150.798;2024-03-08T10:37:02;101355.28;;;27.01;54.55
63399;BME280;49533;-34.520;150.798;2024-03-08T10:39:34;101446.09;;;27.59;54.55
63399;BME280;49533;-34.520;150.798;2024-03-08T10:42:04;101419.03;;;27.35;54.48
63399;BME280;49533;-34.520;150.798;2024-03-08T10:44:44;101455.28;;;27.52;54.80
63399;BME280;49533;-34.520;150.798;2024-03-08T10:52:34;101412.25;;;27.25;54.03
63399;BME280;49533;-34.520;150.798;2024-03-08T10:55:04;101442.16;;;27.31;54.50
63399;BME280;49533;-34.520;150.798;2024-03-08T10:57:41;101401.47;;;27.16;54.32
63399;BME280;49533;-34.520;150.798;2024-03-08T11:00:11;101419.06;;;27.20;53.81
63399;BME280;49533;-34.520;150.798;2024-03-08T11:02:39;101407.47;;;27.04;53.85
63399;BME280;49533;-34.520;150.798;2024-03-08T11:05:11;101407.88;;;27.06;54.13
63399;BME280;49533;-34.520;150.798;2024-03-08T11:07:45;101414.66;;;27.05;54.00
63399;BME280;49533;-34.520;150.798;2024-03-08T11:10:20;101418.22;;;27.09;54.18
63399;BME280;49533;-34.520;150.798;2024-03-08T11:12:48;101388.34;;;26.92;54.04
63399;BME280;49533;-34.520;150.798;2024-03-08T11:15:15;101458.09;;;27.35;53.95
63399;BME280;49533;-34.520;150.798;2024-03-08T11:20:14;101419.03;;;26.84;53.77
63399;BME280;49533;-34.520;150.798;2024-03-08T11:25:43;101400.69;;;26.76;53.94
63399;BME280;49533;-34.520;150.798;2024-03-08T11:28:13;101466.88;;;27.26;53.37
63399;BME280;49533;-34.520;150.798;2024-03-08T11:31:21;101466.47;;;27.24;53.59
63399;BME280;49533;-34.520;150.798;2024-03-08T11:33:40;101422.22;;;27.01;53.53
63399;BME280;49533;-34.520;150.798;2024-03-08T11:36:23;101465.28;;;27.21;53.66
63399;BME280;49533;-34.520;150.798;2024-03-08T11:38:52;101401.47;;;26.73;53.46
63399;BME280;49533;-34.520;150.798;2024-03-08T11:41:22;101457.28;;;27.16;53.75
63399;BME280;49533;-34.520;150.798;2024-03-08T11:44:03;101424.59;;;26.92;53.57
63399;BME280;49533;-34.520;150.798;2024-03-08T11:46:33;101424.59;;;26.88;53.50
63399;BME280;49533;-34.520;150.798;2024-03-08T11:49:01;101419.44;;;26.79;53.55
63399;BME280;49533;-34.520;150.798;2024-03-08T11:51:29;101400.69;;;26.69;53.98
63399;BME280;49533;-34.520;150.798;2024-03-08T11:53:56;101434.16;;;26.83;53.78
63399;BME280;49533;-34.520;150.798;2024-03-08T11:56:24;101462.06;;;27.08;53.75
63399;BME280;49533;-34.520;150.798;2024-03-08T11:58:55;101469.22;;;27.06;53.57
63399;BME280;49533;-34.520;150.798;2024-03-08T12:01:27;101462.06;;;27.05;53.67
63399;BME280;49533;-34.520;150.798;2024-03-08T12:03:55;101452.88;;;26.94;53.21
63399;BME280;49533;-34.520;150.798;2024-03-08T12:06:26;101383.13;;;26.43;53.06
63399;BME280;49533;-34.520;150.798;2024-03-08T12:08:53;101469.22;;;26.99;53.31
63399;BME280;49533;-34.520;150.798;2024-03-08T12:11:20;101472.41;;;26.97;53.16
63399;BME280;49533;-34.520;150.798;2024-03-08T12:13:51;101422.19;;;26.61;53.26
63399;BME280;49533;-34.520;150.798;2024-03-08T12:16:18;101418.59;;;26.68;52.93
63399;BME280;49533;-34.520;150.798;2024-03-08T12:18:48;101373.53;;;26.37;52.84
63399;BME280;49533;-34.520;150.798;2024-03-08T12:21:15;101403.03;;;26.53;52.89
63399;BME280;49533;-34.520;150.798;2024-03-08T12:23:47;101458.84;;;26.88;52.78
63399;BME280;49533;-34.520;150.798;2024-03-08T12:26:24;101415.41;;;26.59;53.07
63399;BME280;49533;-34.520;150.798;2024-03-08T12:28:52;101401.41;;;26.44;52.85
63399;BME280;49533;-34.520;150.798;2024-03-08T12:31:19;101455.66;;;26.72;52.85
63399;BME280;49533;-34.520;150.798;2024-03-08T12:33:56;101455.66;;;26.79;53.09
63399;BME280;49533;-34.520;150.798;2024-03-08T12:36:25;101449.28;;;26.79;52.95
63399;BME280;49533;-34.520;150.798;2024-03-08T12:38:54;101374.72;;;26.26;53.27